Terminal Aerodrome Forecast
Issued by NWS

Home | Current Version | Previous Version | Text Only | Print | Product List | Glossary On
Versions: 1 2 3 4 5 6 7 8 9 10 11 12 13 14 15 16 17 18 19 20 21 22 23 24 25 26 27 28 29 30 31 32 33 34 35 36 37 38 39 40
000
FTUS45 KSLC 192323
TAFEVW
TAF
KEVW 192323Z 2000/2024 30012G19KT P6SM SCT080 BKN120
     FM200200 29007KT P6SM SCT060 BKN100
     FM200600 17006KT P6SM SCT060
     FM201800 27010G15KT P6SM SCT060=

USA.gov is the U.S. government's official web portal to all federal, state and local government web resources and services.